Current Conditions
Scattered
Clouds



Pressure
1016.92 (mb) - 30.03 (inHG)
Visibility

6.2 (miles) - 10.0 (km)
Temperature
16  °C
Temperature
9  °C
Dewpoint
63  %
 Humidity
Wind Speed
14  mph
12  kts
23  km/h
6.3  m/s
Wind Direction
N
45°
E
90°
135°
S
180°
225°
W
270°
315°
 260°

Due West
Airport Data
EGGD
Bristol Airport
Metar :EGGD 011350Z AUTO 26012KT 9999 SCT035 16/09 Q1017
Fri 1st July 14:50 pm
Raw Metar Info
Raw METAR is the most common format in the world for the transmission of observational weather data. It is highly standardized through the International Civil Aviation Organization (ICAO), which allows it to be understood throughout most of the world.
API Info
Data Provided by
https://www.checkwx.com/weather/EGGD

Aviation Weather providing METAR, TAF, AIRMET, SIGMET and OUTLOOK Weather Reports
© Info
CSS/SVG/PHP scripts were developed by weather34 for use in the weather34 template © 2015-2022

Guide Info provided by Metar-Wikipedia